sensor_id;sensor_type;location;lat;lon;timestamp;temperature;humidity
19248;DHT22;9758;48.640;8.148;2023-02-01T00:00:18;7.50;59.60
19248;DHT22;9758;48.640;8.148;2023-02-01T00:02:46;7.50;59.60
19248;DHT22;9758;48.640;8.148;2023-02-01T00:05:13;7.50;59.60
19248;DHT22;9758;48.640;8.148;2023-02-01T00:07:40;7.40;59.60
19248;DHT22;9758;48.640;8.148;2023-02-01T00:10:08;7.40;59.70
19248;DHT22;9758;48.640;8.148;2023-02-01T00:12:35;7.40;59.70
19248;DHT22;9758;48.640;8.148;2023-02-01T00:15:02;7.40;59.60
19248;DHT22;9758;48.640;8.148;2023-02-01T00:17:28;7.40;59.70
19248;DHT22;9758;48.640;8.148;2023-02-01T00:19:57;7.30;59.90
19248;DHT22;9758;48.640;8.148;2023-02-01T00:22:24;7.30;59.90
19248;DHT22;9758;48.640;8.148;2023-02-01T00:24:50;7.30;59.90
19248;DHT22;9758;48.640;8.148;2023-02-01T00:27:17;7.20;59.90
19248;DHT22;9758;48.640;8.148;2023-02-01T00:29:46;7.20;60.00
19248;DHT22;9758;48.640;8.148;2023-02-01T00:32:13;7.20;59.90
19248;DHT22;9758;48.640;8.148;2023-02-01T00:34:40;7.20;60.00
19248;DHT22;9758;48.640;8.148;2023-02-01T00:37:08;7.20;60.00
19248;DHT22;9758;48.640;8.148;2023-02-01T00:39:34;7.20;60.80
19248;DHT22;9758;48.640;8.148;2023-02-01T00:42:01;7.20;60.00
19248;DHT22;9758;48.640;8.148;2023-02-01T00:44:29;7.20;60.10
19248;DHT22;9758;48.640;8.148;2023-02-01T00:46:58;7.20;60.20
19248;DHT22;9758;48.640;8.148;2023-02-01T00:49:25;7.20;60.00
19248;DHT22;9758;48.640;8.148;2023-02-01T00:51:52;7.20;60.20
19248;DHT22;9758;48.640;8.148;2023-02-01T00:54:20;7.20;60.10
19248;DHT22;9758;48.640;8.148;2023-02-01T00:56:47;7.20;60.20
19248;DHT22;9758;48.640;8.148;2023-02-01T00:59:14;7.20;60.00
19248;DHT22;9758;48.640;8.148;2023-02-01T01:01:41;7.20;60.30
19248;DHT22;9758;48.640;8.148;2023-02-01T01:04:08;7.20;60.20
19248;DHT22;9758;48.640;8.148;2023-02-01T01:06:34;7.20;60.30
19248;DHT22;9758;48.640;8.148;2023-02-01T01:09:03;7.20;60.30
19248;DHT22;9758;48.640;8.148;2023-02-01T01:11:34;7.30;60.20
19248;DHT22;9758;48.640;8.148;2023-02-01T01:14:01;7.30;60.30
19248;DHT22;9758;48.640;8.148;2023-02-01T01:16:29;7.30;60.20
19248;DHT22;9758;48.640;8.148;2023-02-01T01:18:56;7.30;60.20
19248;DHT22;9758;48.640;8.148;2023-02-01T01:21:24;7.30;60.10
19248;DHT22;9758;48.640;8.148;2023-02-01T01:23:51;7.30;60.00
19248;DHT22;9758;48.640;8.148;2023-02-01T01:26:20;7.30;60.10
19248;DHT22;9758;48.640;8.148;2023-02-01T01:28:49;7.30;60.30
19248;DHT22;9758;48.640;8.148;2023-02-01T01:31:18;7.30;60.20
19248;DHT22;9758;48.640;8.148;2023-02-01T01:33:48;7.40;60.30
19248;DHT22;9758;48.640;8.148;2023-02-01T01:36:16;7.40;60.10
19248;DHT22;9758;48.640;8.148;2023-02-01T01:38:43;7.30;60.20
19248;DHT22;9758;48.640;8.148;2023-02-01T01:41:13;7.40;60.20
19248;DHT22;9758;48.640;8.148;2023-02-01T01:43:49;7.40;60.20
19248;DHT22;9758;48.640;8.148;2023-02-01T01:46:17;7.40;60.10
19248;DHT22;9758;48.640;8.148;2023-02-01T01:48:45;7.40;60.20
19248;DHT22;9758;48.640;8.148;2023-02-01T01:51:14;7.40;60.20
19248;DHT22;9758;48.640;8.148;2023-02-01T01:53:47;7.40;60.20
19248;DHT22;9758;48.640;8.148;2023-02-01T01:56:14;7.30;60.20
19248;DHT22;9758;48.640;8.148;2023-02-01T01:58:41;7.40;60.20
19248;DHT22;9758;48.640;8.148;2023-02-01T02:01:10;7.30;60.20
19248;DHT22;9758;48.640;8.148;2023-02-01T02:03:39;7.30;60.30
19248;DHT22;9758;48.640;8.148;2023-02-01T02:06:12;7.30;60.50
19248;DHT22;9758;48.640;8.148;2023-02-01T02:08:43;7.30;60.30
19248;DHT22;9758;48.640;8.148;2023-02-01T02:11:12;7.30;60.20
19248;DHT22;9758;48.640;8.148;2023-02-01T02:13:42;7.30;60.50
19248;DHT22;9758;48.640;8.148;2023-02-01T02:16:24;7.30;60.30
19248;DHT22;9758;48.640;8.148;2023-02-01T02:19:03;7.30;60.40
19248;DHT22;9758;48.640;8.148;2023-02-01T02:21:52;7.30;60.40
19248;DHT22;9758;48.640;8.148;2023-02-01T02:25:02;7.40;60.30
19248;DHT22;9758;48.640;8.148;2023-02-01T02:27:41;7.40;60.40
19248;DHT22;9758;48.640;8.148;2023-02-01T02:30:40;7.40;60.30
19248;DHT22;9758;48.640;8.148;2023-02-01T02:33:26;7.40;60.40
19248;DHT22;9758;48.640;8.148;2023-02-01T02:36:05;7.40;60.30
19248;DHT22;9758;48.640;8.148;2023-02-01T02:38:40;7.40;60.30
19248;DHT22;9758;48.640;8.148;2023-02-01T02:41:13;7.40;60.30
19248;DHT22;9758;48.640;8.148;2023-02-01T02:44:10;7.40;60.30
19248;DHT22;9758;48.640;8.148;2023-02-01T02:47:16;7.40;60.50
19248;DHT22;9758;48.640;8.148;2023-02-01T02:53:16;7.50;60.50
19248;DHT22;9758;48.640;8.148;2023-02-01T02:56:03;7.50;60.30
19248;DHT22;9758;48.640;8.148;2023-02-01T02:58:48;7.50;60.30
19248;DHT22;9758;48.640;8.148;2023-02-01T03:01:33;7.50;60.30
19248;DHT22;9758;48.640;8.148;2023-02-01T03:04:17;7.50;60.20
19248;DHT22;9758;48.640;8.148;2023-02-01T03:06:45;7.60;60.30
19248;DHT22;9758;48.640;8.148;2023-02-01T03:09:18;7.60;60.20
19248;DHT22;9758;48.640;8.148;2023-02-01T03:11:49;7.60;60.90
19248;DHT22;9758;48.640;8.148;2023-02-01T03:14:37;7.60;60.20
19248;DHT22;9758;48.640;8.148;2023-02-01T03:17:11;7.60;60.10
19248;DHT22;9758;48.640;8.148;2023-02-01T03:19:40;7.60;60.20
19248;DHT22;9758;48.640;8.148;2023-02-01T03:22:15;7.60;60.20
19248;DHT22;9758;48.640;8.148;2023-02-01T03:24:47;7.60;60.50
19248;DHT22;9758;48.640;8.148;2023-02-01T03:27:18;7.60;60.30
19248;DHT22;9758;48.640;8.148;2023-02-01T03:29:51;7.60;60.30
19248;DHT22;9758;48.640;8.148;2023-02-01T03:32:19;7.60;60.20
19248;DHT22;9758;48.640;8.148;2023-02-01T03:34:48;7.60;60.20
19248;DHT22;9758;48.640;8.148;2023-02-01T03:37:19;7.60;60.20
19248;DHT22;9758;48.640;8.148;2023-02-01T03:39:53;7.60;60.10
19248;DHT22;9758;48.640;8.148;2023-02-01T03:42:26;7.60;60.10
19248;DHT22;9758;48.640;8.148;2023-02-01T03:44:57;7.60;60.10
19248;DHT22;9758;48.640;8.148;2023-02-01T03:47:30;7.60;60.00
19248;DHT22;9758;48.640;8.148;2023-02-01T03:50:02;7.70;60.10
19248;DHT22;9758;48.640;8.148;2023-02-01T03:52:32;7.70;60.10
19248;DHT22;9758;48.640;8.148;2023-02-01T03:55:05;7.70;60.10
19248;DHT22;9758;48.640;8.148;2023-02-01T03:57:35;7.70;60.00
19248;DHT22;9758;48.640;8.148;2023-02-01T04:00:05;7.70;60.00
19248;DHT22;9758;48.640;8.148;2023-02-01T04:02:34;7.70;60.10
19248;DHT22;9758;48.640;8.148;2023-02-01T04:05:00;7.70;60.00
19248;DHT22;9758;48.640;8.148;2023-02-01T04:07:27;7.70;60.00
19248;DHT22;9758;48.640;8.148;2023-02-01T04:09:54;7.70;60.00
19248;DHT22;9758;48.640;8.148;2023-02-01T04:12:22;7.70;60.10
19248;DHT22;9758;48.640;8.148;2023-02-01T04:14:49;7.70;60.00
19248;DHT22;9758;48.640;8.148;2023-02-01T04:17:15;7.70;60.00
19248;DHT22;9758;48.640;8.148;2023-02-01T04:19:42;7.70;60.00
19248;DHT22;9758;48.640;8.148;2023-02-01T04:22:09;7.70;60.10
19248;DHT22;9758;48.640;8.148;2023-02-01T04:24:35;7.70;60.10
19248;DHT22;9758;48.640;8.148;2023-02-01T04:27:02;7.80;60.20
19248;DHT22;9758;48.640;8.148;2023-02-01T04:29:30;7.80;60.10
19248;DHT22;9758;48.640;8.148;2023-02-01T04:31:57;7.80;60.00
19248;DHT22;9758;48.640;8.148;2023-02-01T04:34:24;7.80;60.00
19248;DHT22;9758;48.640;8.148;2023-02-01T04:36:51;7.80;60.00
19248;DHT22;9758;48.640;8.148;2023-02-01T04:39:18;7.90;60.00
19248;DHT22;9758;48.640;8.148;2023-02-01T04:41:45;7.80;59.90
19248;DHT22;9758;48.640;8.148;2023-02-01T04:44:13;7.90;60.00
19248;DHT22;9758;48.640;8.148;2023-02-01T04:46:42;7.80;59.90
19248;DHT22;9758;48.640;8.148;2023-02-01T04:49:10;7.90;59.90
19248;DHT22;9758;48.640;8.148;2023-02-01T04:51:36;7.90;59.90
19248;DHT22;9758;48.640;8.148;2023-02-01T04:54:03;7.80;59.90
19248;DHT22;9758;48.640;8.148;2023-02-01T04:56:30;7.90;60.00
19248;DHT22;9758;48.640;8.148;2023-02-01T04:58:57;7.90;59.90
19248;DHT22;9758;48.640;8.148;2023-02-01T05:01:24;7.90;59.80
19248;DHT22;9758;48.640;8.148;2023-02-01T05:03:52;7.90;59.90
19248;DHT22;9758;48.640;8.148;2023-02-01T05:06:19;7.90;59.90
19248;DHT22;9758;48.640;8.148;2023-02-01T05:08:46;7.90;59.80
19248;DHT22;9758;48.640;8.148;2023-02-01T05:11:12;8.00;59.90
19248;DHT22;9758;48.640;8.148;2023-02-01T05:13:53;8.00;59.90
19248;DHT22;9758;48.640;8.148;2023-02-01T05:16:20;8.00;59.80
19248;DHT22;9758;48.640;8.148;2023-02-01T05:18:46;8.00;59.70
19248;DHT22;9758;48.640;8.148;2023-02-01T05:21:15;8.00;59.70
19248;DHT22;9758;48.640;8.148;2023-02-01T05:23:41;8.00;59.60
19248;DHT22;9758;48.640;8.148;2023-02-01T05:26:31;8.00;59.70
19248;DHT22;9758;48.640;8.148;2023-02-01T05:28:59;8.00;59.70
19248;DHT22;9758;48.640;8.148;2023-02-01T05:31:26;8.00;59.80
19248;DHT22;9758;48.640;8.148;2023-02-01T05:33:53;8.00;59.60
19248;DHT22;9758;48.640;8.148;2023-02-01T05:36:21;8.00;59.70
19248;DHT22;9758;48.640;8.148;2023-02-01T05:38:48;8.00;59.70
19248;DHT22;9758;48.640;8.148;2023-02-01T05:41:15;8.00;59.70
19248;DHT22;9758;48.640;8.148;2023-02-01T05:43:42;8.00;59.70
19248;DHT22;9758;48.640;8.148;2023-02-01T05:46:08;8.00;59.70
19248;DHT22;9758;48.640;8.148;2023-02-01T05:48:38;8.00;59.70
19248;DHT22;9758;48.640;8.148;2023-02-01T05:51:04;7.90;59.60
19248;DHT22;9758;48.640;8.148;2023-02-01T05:53:33;7.90;59.70
19248;DHT22;9758;48.640;8.148;2023-02-01T05:56:00;7.90;59.70
19248;DHT22;9758;48.640;8.148;2023-02-01T05:58:26;7.90;59.70
19248;DHT22;9758;48.640;8.148;2023-02-01T06:00:53;7.90;59.60
19248;DHT22;9758;48.640;8.148;2023-02-01T06:03:20;7.90;59.70
19248;DHT22;9758;48.640;8.148;2023-02-01T06:05:47;7.80;59.70
19248;DHT22;9758;48.640;8.148;2023-02-01T06:08:15;7.80;59.70
19248;DHT22;9758;48.640;8.148;2023-02-01T06:10:44;7.80;59.80
19248;DHT22;9758;48.640;8.148;2023-02-01T06:13:10;7.80;59.80
19248;DHT22;9758;48.640;8.148;2023-02-01T06:15:37;7.80;59.80
19248;DHT22;9758;48.640;8.148;2023-02-01T06:18:04;7.80;59.80
19248;DHT22;9758;48.640;8.148;2023-02-01T06:20:31;7.80;60.40
19248;DHT22;9758;48.640;8.148;2023-02-01T06:22:58;7.80;59.80
19248;DHT22;9758;48.640;8.148;2023-02-01T06:25:25;7.80;59.90
19248;DHT22;9758;48.640;8.148;2023-02-01T06:27:53;7.70;59.80
19248;DHT22;9758;48.640;8.148;2023-02-01T06:30:19;7.70;59.90
19248;DHT22;9758;48.640;8.148;2023-02-01T06:32:50;7.70;59.90
19248;DHT22;9758;48.640;8.148;2023-02-01T06:35:19;7.70;59.80
19248;DHT22;9758;48.640;8.148;2023-02-01T06:37:45;7.70;59.80
19248;DHT22;9758;48.640;8.148;2023-02-01T06:40:13;7.70;59.90
19248;DHT22;9758;48.640;8.148;2023-02-01T06:42:39;7.70;59.90
19248;DHT22;9758;48.640;8.148;2023-02-01T06:45:08;7.70;59.90
19248;DHT22;9758;48.640;8.148;2023-02-01T06:47:35;7.70;60.00
19248;DHT22;9758;48.640;8.148;2023-02-01T06:50:02;7.70;60.00
19248;DHT22;9758;48.640;8.148;2023-02-01T06:52:29;7.70;60.70
19248;DHT22;9758;48.640;8.148;2023-02-01T06:54:56;7.70;60.00
19248;DHT22;9758;48.640;8.148;2023-02-01T06:57:23;7.60;60.00
19248;DHT22;9758;48.640;8.148;2023-02-01T06:59:50;7.60;60.00
19248;DHT22;9758;48.640;8.148;2023-02-01T07:02:18;7.60;60.00
19248;DHT22;9758;48.640;8.148;2023-02-01T07:04:45;7.60;60.00
19248;DHT22;9758;48.640;8.148;2023-02-01T07:07:13;7.60;60.00
19248;DHT22;9758;48.640;8.148;2023-02-01T07:09:40;7.60;60.00
19248;DHT22;9758;48.640;8.148;2023-02-01T07:12:07;7.60;60.00
19248;DHT22;9758;48.640;8.148;2023-02-01T07:14:34;7.60;60.00
19248;DHT22;9758;48.640;8.148;2023-02-01T07:17:01;7.60;60.10
19248;DHT22;9758;48.640;8.148;2023-02-01T07:19:29;7.60;60.10
19248;DHT22;9758;48.640;8.148;2023-02-01T07:21:55;7.60;60.10
19248;DHT22;9758;48.640;8.148;2023-02-01T07:24:22;7.60;60.10
19248;DHT22;9758;48.640;8.148;2023-02-01T07:26:49;7.70;60.10
19248;DHT22;9758;48.640;8.148;2023-02-01T07:29:16;7.60;60.60
19248;DHT22;9758;48.640;8.148;2023-02-01T07:31:44;7.60;60.00
19248;DHT22;9758;48.640;8.148;2023-02-01T07:34:11;7.70;60.80
19248;DHT22;9758;48.640;8.148;2023-02-01T07:36:39;7.70;60.10
19248;DHT22;9758;48.640;8.148;2023-02-01T07:39:07;7.70;60.10
19248;DHT22;9758;48.640;8.148;2023-02-01T07:41:34;7.70;60.00
19248;DHT22;9758;48.640;8.148;2023-02-01T07:44:00;7.70;60.00
19248;DHT22;9758;48.640;8.148;2023-02-01T07:46:27;7.70;60.00
19248;DHT22;9758;48.640;8.148;2023-02-01T07:48:54;7.70;60.00
19248;DHT22;9758;48.640;8.148;2023-02-01T07:51:21;7.70;60.00
19248;DHT22;9758;48.640;8.148;2023-02-01T07:53:49;7.70;60.00
19248;DHT22;9758;48.640;8.148;2023-02-01T07:56:17;7.70;60.00
19248;DHT22;9758;48.640;8.148;2023-02-01T07:58:47;7.70;60.00
19248;DHT22;9758;48.640;8.148;2023-02-01T08:01:15;7.70;60.00
19248;DHT22;9758;48.640;8.148;2023-02-01T08:03:48;7.80;60.10
19248;DHT22;9758;48.640;8.148;2023-02-01T08:06:16;7.80;60.10
19248;DHT22;9758;48.640;8.148;2023-02-01T08:08:43;7.80;60.00
19248;DHT22;9758;48.640;8.148;2023-02-01T08:11:11;7.80;60.00
19248;DHT22;9758;48.640;8.148;2023-02-01T08:13:39;7.80;60.00
19248;DHT22;9758;48.640;8.148;2023-02-01T08:16:08;7.80;60.10
19248;DHT22;9758;48.640;8.148;2023-02-01T08:18:36;7.80;60.10
19248;DHT22;9758;48.640;8.148;2023-02-01T08:21:03;7.80;60.10
19248;DHT22;9758;48.640;8.148;2023-02-01T08:23:30;7.80;60.10
19248;DHT22;9758;48.640;8.148;2023-02-01T08:26:05;7.80;60.20
19248;DHT22;9758;48.640;8.148;2023-02-01T08:28:33;7.80;60.10
19248;DHT22;9758;48.640;8.148;2023-02-01T08:31:04;7.80;60.00
19248;DHT22;9758;48.640;8.148;2023-02-01T08:33:31;7.80;60.00
19248;DHT22;9758;48.640;8.148;2023-02-01T08:35:59;7.80;60.00
19248;DHT22;9758;48.640;8.148;2023-02-01T08:38:26;7.80;60.00
19248;DHT22;9758;48.640;8.148;2023-02-01T08:40:53;7.80;60.00
19248;DHT22;9758;48.640;8.148;2023-02-01T08:43:20;7.80;60.00
19248;DHT22;9758;48.640;8.148;2023-02-01T08:45:48;7.90;60.00
19248;DHT22;9758;48.640;8.148;2023-02-01T08:48:16;7.80;60.00
19248;DHT22;9758;48.640;8.148;2023-02-01T08:50:42;7.80;59.90
19248;DHT22;9758;48.640;8.148;2023-02-01T08:53:09;7.90;60.00
19248;DHT22;9758;48.640;8.148;2023-02-01T08:55:38;7.80;59.90
19248;DHT22;9758;48.640;8.148;2023-02-01T08:58:05;7.80;59.90
19248;DHT22;9758;48.640;8.148;2023-02-01T09:00:32;7.90;59.90
19248;DHT22;9758;48.640;8.148;2023-02-01T09:03:00;7.90;59.90
19248;DHT22;9758;48.640;8.148;2023-02-01T09:05:27;7.90;59.80
19248;DHT22;9758;48.640;8.148;2023-02-01T09:07:54;7.90;59.80
19248;DHT22;9758;48.640;8.148;2023-02-01T09:10:21;7.90;59.90
19248;DHT22;9758;48.640;8.148;2023-02-01T09:12:47;8.00;59.90
19248;DHT22;9758;48.640;8.148;2023-02-01T09:15:14;8.00;59.80
19248;DHT22;9758;48.640;8.148;2023-02-01T09:17:41;8.00;59.80
19248;DHT22;9758;48.640;8.148;2023-02-01T09:20:12;8.10;59.80
19248;DHT22;9758;48.640;8.148;2023-02-01T09:22:39;8.00;59.60
19248;DHT22;9758;48.640;8.148;2023-02-01T09:25:07;8.00;59.60
19248;DHT22;9758;48.640;8.148;2023-02-01T09:27:34;8.10;59.70
19248;DHT22;9758;48.640;8.148;2023-02-01T09:30:01;8.10;59.70
19248;DHT22;9758;48.640;8.148;2023-02-01T09:32:28;8.10;59.50
19248;DHT22;9758;48.640;8.148;2023-02-01T09:34:54;8.10;59.60
19248;DHT22;9758;48.640;8.148;2023-02-01T09:37:22;8.10;59.60
19248;DHT22;9758;48.640;8.148;2023-02-01T09:40:04;8.20;59.60
19248;DHT22;9758;48.640;8.148;2023-02-01T09:42:47;8.20;59.50
19248;DHT22;9758;48.640;8.148;2023-02-01T09:45:22;8.20;59.60
19248;DHT22;9758;48.640;8.148;2023-02-01T09:47:53;8.20;59.50
19248;DHT22;9758;48.640;8.148;2023-02-01T09:50:27;8.30;59.50
19248;DHT22;9758;48.640;8.148;2023-02-01T09:53:00;8.30;59.40
19248;DHT22;9758;48.640;8.148;2023-02-01T09:55:34;8.30;59.40
19248;DHT22;9758;48.640;8.148;2023-02-01T09:58:05;8.30;59.40
19248;DHT22;9758;48.640;8.148;2023-02-01T10:00:35;8.30;59.40
19248;DHT22;9758;48.640;8.148;2023-02-01T10:03:02;8.30;59.30
19248;DHT22;9758;48.640;8.148;2023-02-01T10:06:06;8.30;59.30
19248;DHT22;9758;48.640;8.148;2023-02-01T10:08:53;8.30;59.30
19248;DHT22;9758;48.640;8.148;2023-02-01T10:11:30;8.30;59.30
19248;DHT22;9758;48.640;8.148;2023-02-01T10:14:26;8.20;59.30
19248;DHT22;9758;48.640;8.148;2023-02-01T10:17:06;8.20;59.40
19248;DHT22;9758;48.640;8.148;2023-02-01T10:19:41;8.20;59.40
19248;DHT22;9758;48.640;8.148;2023-02-01T10:22:11;8.20;59.50
19248;DHT22;9758;48.640;8.148;2023-02-01T10:24:55;8.30;59.50
19248;DHT22;9758;48.640;8.148;2023-02-01T10:27:30;8.30;59.50
19248;DHT22;9758;48.640;8.148;2023-02-01T10:30:04;8.30;59.40
19248;DHT22;9758;48.640;8.148;2023-02-01T10:32:32;8.30;59.40
19248;DHT22;9758;48.640;8.148;2023-02-01T10:35:02;8.30;59.30
19248;DHT22;9758;48.640;8.148;2023-02-01T10:37:32;8.30;59.30
19248;DHT22;9758;48.640;8.148;2023-02-01T10:40:05;8.30;59.40
19248;DHT22;9758;48.640;8.148;2023-02-01T10:42:39;8.30;59.30
19248;DHT22;9758;48.640;8.148;2023-02-01T10:45:11;8.30;59.40
19248;DHT22;9758;48.640;8.148;2023-02-01T10:47:39;8.30;59.40
19248;DHT22;9758;48.640;8.148;2023-02-01T10:50:16;8.30;59.40
19248;DHT22;9758;48.640;8.148;2023-02-01T10:52:50;8.30;59.30
19248;DHT22;9758;48.640;8.148;2023-02-01T10:55:47;8.30;59.30
19248;DHT22;9758;48.640;8.148;2023-02-01T10:58:17;8.40;59.50
19248;DHT22;9758;48.640;8.148;2023-02-01T11:00:48;8.30;59.30
19248;DHT22;9758;48.640;8.148;2023-02-01T11:03:33;8.40;59.40
19248;DHT22;9758;48.640;8.148;2023-02-01T11:06:22;8.40;59.30
19248;DHT22;9758;48.640;8.148;2023-02-01T11:08:51;8.40;59.20
19248;DHT22;9758;48.640;8.148;2023-02-01T11:11:20;8.50;59.20
19248;DHT22;9758;48.640;8.148;2023-02-01T11:13:56;8.40;59.10
19248;DHT22;9758;48.640;8.148;2023-02-01T11:16:30;8.40;59.10
19248;DHT22;9758;48.640;8.148;2023-02-01T11:18:58;8.40;59.10
19248;DHT22;9758;48.640;8.148;2023-02-01T11:21:25;8.40;59.10
19248;DHT22;9758;48.640;8.148;2023-02-01T11:23:52;8.40;59.20
19248;DHT22;9758;48.640;8.148;2023-02-01T11:26:23;8.40;59.20
19248;DHT22;9758;48.640;8.148;2023-02-01T11:28:56;8.40;59.30
19248;DHT22;9758;48.640;8.148;2023-02-01T11:31:25;8.40;59.20
19248;DHT22;9758;48.640;8.148;2023-02-01T11:33:55;8.40;59.00
19248;DHT22;9758;48.640;8.148;2023-02-01T11:36:26;8.50;59.20
19248;DHT22;9758;48.640;8.148;2023-02-01T11:39:06;8.50;59.10
19248;DHT22;9758;48.640;8.148;2023-02-01T11:41:41;8.50;59.00
19248;DHT22;9758;48.640;8.148;2023-02-01T11:44:20;8.50;59.00
19248;DHT22;9758;48.640;8.148;2023-02-01T11:46:47;8.40;59.00
19248;DHT22;9758;48.640;8.148;2023-02-01T11:49:20;8.40;59.50
19248;DHT22;9758;48.640;8.148;2023-02-01T11:51:56;8.50;59.10
19248;DHT22;9758;48.640;8.148;2023-02-01T11:54:43;8.40;59.10
19248;DHT22;9758;48.640;8.148;2023-02-01T11:57:37;8.40;59.00
19248;DHT22;9758;48.640;8.148;2023-02-01T12:00:23;8.50;59.00
19248;DHT22;9758;48.640;8.148;2023-02-01T12:03:11;8.50;58.90
19248;DHT22;9758;48.640;8.148;2023-02-01T12:05:48;8.40;58.80
19248;DHT22;9758;48.640;8.148;2023-02-01T12:08:31;8.50;59.00
19248;DHT22;9758;48.640;8.148;2023-02-01T12:11:20;8.40;59.00
19248;DHT22;9758;48.640;8.148;2023-02-01T12:13:58;8.40;59.10
19248;DHT22;9758;48.640;8.148;2023-02-01T12:16:34;8.40;59.00
19248;DHT22;9758;48.640;8.148;2023-02-01T12:19:15;8.40;59.00
19248;DHT22;9758;48.640;8.148;2023-02-01T12:22:04;8.40;59.00
19248;DHT22;9758;48.640;8.148;2023-02-01T12:24:48;8.40;59.10
19248;DHT22;9758;48.640;8.148;2023-02-01T12:27:50;8.40;59.10
19248;DHT22;9758;48.640;8.148;2023-02-01T12:30:48;8.40;59.00
19248;DHT22;9758;48.640;8.148;2023-02-01T12:33:26;8.40;59.00
19248;DHT22;9758;48.640;8.148;2023-02-01T12:36:12;8.40;59.00
19248;DHT22;9758;48.640;8.148;2023-02-01T12:38:54;8.40;59.10
19248;DHT22;9758;48.640;8.148;2023-02-01T12:41:38;8.30;59.00
19248;DHT22;9758;48.640;8.148;2023-02-01T12:44:12;8.30;59.10
19248;DHT22;9758;48.640;8.148;2023-02-01T12:46:50;8.40;59.20
19248;DHT22;9758;48.640;8.148;2023-02-01T12:49:22;8.30;59.20
19248;DHT22;9758;48.640;8.148;2023-02-01T12:51:57;8.40;59.10
19248;DHT22;9758;48.640;8.148;2023-02-01T12:54:30;8.40;59.20
19248;DHT22;9758;48.640;8.148;2023-02-01T12:57:03;8.40;59.10
19248;DHT22;9758;48.640;8.148;2023-02-01T12:59:36;8.30;59.00
19248;DHT22;9758;48.640;8.148;2023-02-01T13:02:12;8.30;59.10
19248;DHT22;9758;48.640;8.148;2023-02-01T13:04:49;8.30;59.10
19248;DHT22;9758;48.640;8.148;2023-02-01T13:07:21;8.30;59.10
19248;DHT22;9758;48.640;8.148;2023-02-01T13:09:51;8.30;59.20
19248;DHT22;9758;48.640;8.148;2023-02-01T13:12:23;8.30;59.20
19248;DHT22;9758;48.640;8.148;2023-02-01T13:14:54;8.40;59.20
19248;DHT22;9758;48.640;8.148;2023-02-01T13:17:26;8.30;59.20
19248;DHT22;9758;48.640;8.148;2023-02-01T13:19:57;8.40;59.20
19248;DHT22;9758;48.640;8.148;2023-02-01T13:22:29;8.40;59.20
19248;DHT22;9758;48.640;8.148;2023-02-01T13:24:59;8.40;59.20
19248;DHT22;9758;48.640;8.148;2023-02-01T13:27:28;8.40;59.00
19248;DHT22;9758;48.640;8.148;2023-02-01T13:29:58;8.40;59.00
19248;DHT22;9758;48.640;8.148;2023-02-01T13:32:48;8.30;59.10
19248;DHT22;9758;48.640;8.148;2023-02-01T13:35:51;8.30;59.20
19248;DHT22;9758;48.640;8.148;2023-02-01T13:38:41;8.30;59.20
19248;DHT22;9758;48.640;8.148;2023-02-01T13:41:23;8.40;59.20
19248;DHT22;9758;48.640;8.148;2023-02-01T13:43:54;8.40;59.10
19248;DHT22;9758;48.640;8.148;2023-02-01T13:46:22;8.40;59.10
19248;DHT22;9758;48.640;8.148;2023-02-01T13:48:52;8.40;59.10
19248;DHT22;9758;48.640;8.148;2023-02-01T13:51:34;8.40;59.20
19248;DHT22;9758;48.640;8.148;2023-02-01T13:54:01;8.40;59.10
19248;DHT22;9758;48.640;8.148;2023-02-01T13:56:40;8.50;59.00
19248;DHT22;9758;48.640;8.148;2023-02-01T13:59:36;8.50;59.10
19248;DHT22;9758;48.640;8.148;2023-02-01T14:05:06;8.50;59.00
19248;DHT22;9758;48.640;8.148;2023-02-01T14:07:34;8.50;59.00
19248;DHT22;9758;48.640;8.148;2023-02-01T14:13:04;8.50;58.90
19248;DHT22;9758;48.640;8.148;2023-02-01T14:15:31;8.50;58.90
19248;DHT22;9758;48.640;8.148;2023-02-01T14:17:59;8.50;58.90
19248;DHT22;9758;48.640;8.148;2023-02-01T14:20:46;8.50;58.80
19248;DHT22;9758;48.640;8.148;2023-02-01T14:26:10;8.50;58.90
19248;DHT22;9758;48.640;8.148;2023-02-01T14:28:47;8.50;58.90
19248;DHT22;9758;48.640;8.148;2023-02-01T14:31:25;8.50;58.90
19248;DHT22;9758;48.640;8.148;2023-02-01T14:33:57;8.50;58.90
19248;DHT22;9758;48.640;8.148;2023-02-01T14:36:26;8.40;58.80
19248;DHT22;9758;48.640;8.148;2023-02-01T14:39:16;8.40;58.80
19248;DHT22;9758;48.640;8.148;2023-02-01T14:41:46;8.40;59.00
19248;DHT22;9758;48.640;8.148;2023-02-01T14:44:23;8.40;59.10
19248;DHT22;9758;48.640;8.148;2023-02-01T14:47:05;8.40;59.10
19248;DHT22;9758;48.640;8.148;2023-02-01T14:49:35;8.40;59.00
19248;DHT22;9758;48.640;8.148;2023-02-01T14:52:11;8.40;59.00
19248;DHT22;9758;48.640;8.148;2023-02-01T14:54:41;8.40;59.00
19248;DHT22;9758;48.640;8.148;2023-02-01T14:57:14;8.40;58.90
19248;DHT22;9758;48.640;8.148;2023-02-01T14:59:45;8.40;58.70
19248;DHT22;9758;48.640;8.148;2023-02-01T15:02:20;8.40;58.80
19248;DHT22;9758;48.640;8.148;2023-02-01T15:04:54;8.40;58.80
19248;DHT22;9758;48.640;8.148;2023-02-01T15:07:23;8.40;58.90
19248;DHT22;9758;48.640;8.148;2023-02-01T15:09:53;8.40;58.80
19248;DHT22;9758;48.640;8.148;2023-02-01T15:12:24;8.40;58.90
19248;DHT22;9758;48.640;8.148;2023-02-01T15:15:20;8.40;58.90
19248;DHT22;9758;48.640;8.148;2023-02-01T15:17:52;8.30;58.90
19248;DHT22;9758;48.640;8.148;2023-02-01T15:20:20;8.40;58.90
19248;DHT22;9758;48.640;8.148;2023-02-01T15:22:58;8.40;58.90
19248;DHT22;9758;48.640;8.148;2023-02-01T15:25:27;8.40;59.50
19248;DHT22;9758;48.640;8.148;2023-02-01T15:27:55;8.40;58.90
19248;DHT22;9758;48.640;8.148;2023-02-01T15:30:24;8.40;58.80
19248;DHT22;9758;48.640;8.148;2023-02-01T15:33:04;8.40;58.80
19248;DHT22;9758;48.640;8.148;2023-02-01T15:35:38;8.50;58.80
19248;DHT22;9758;48.640;8.148;2023-02-01T15:38:33;8.50;58.70
19248;DHT22;9758;48.640;8.148;2023-02-01T15:41:04;8.50;58.60
19248;DHT22;9758;48.640;8.148;2023-02-01T15:43:42;8.50;58.70
19248;DHT22;9758;48.640;8.148;2023-02-01T15:46:13;8.50;58.50
19248;DHT22;9758;48.640;8.148;2023-02-01T15:48:47;8.50;58.60
19248;DHT22;9758;48.640;8.148;2023-02-01T15:51:17;8.50;58.70
19248;DHT22;9758;48.640;8.148;2023-02-01T15:53:53;8.50;58.60
19248;DHT22;9758;48.640;8.148;2023-02-01T15:56:25;8.50;58.70
19248;DHT22;9758;48.640;8.148;2023-02-01T15:58:56;8.50;59.30
19248;DHT22;9758;48.640;8.148;2023-02-01T16:01:23;8.50;58.60
19248;DHT22;9758;48.640;8.148;2023-02-01T16:04:05;8.40;58.60
19248;DHT22;9758;48.640;8.148;2023-02-01T16:06:45;8.50;58.60
19248;DHT22;9758;48.640;8.148;2023-02-01T16:09:15;8.40;58.60
19248;DHT22;9758;48.640;8.148;2023-02-01T16:11:51;8.40;58.60
19248;DHT22;9758;48.640;8.148;2023-02-01T16:14:18;8.40;58.60
19248;DHT22;9758;48.640;8.148;2023-02-01T16:16:45;8.40;58.60
19248;DHT22;9758;48.640;8.148;2023-02-01T16:19:12;8.40;58.60
19248;DHT22;9758;48.640;8.148;2023-02-01T16:21:47;8.40;58.40
19248;DHT22;9758;48.640;8.148;2023-02-01T16:24:15;8.40;58.60
19248;DHT22;9758;48.640;8.148;2023-02-01T16:26:42;8.40;58.50
19248;DHT22;9758;48.640;8.148;2023-02-01T16:29:08;8.40;58.70
19248;DHT22;9758;48.640;8.148;2023-02-01T16:31:37;8.40;58.60
19248;DHT22;9758;48.640;8.148;2023-02-01T16:34:05;8.40;58.60
19248;DHT22;9758;48.640;8.148;2023-02-01T16:36:32;8.30;58.50
19248;DHT22;9758;48.640;8.148;2023-02-01T16:38:59;8.40;58.50
19248;DHT22;9758;48.640;8.148;2023-02-01T16:41:29;8.30;58.60
19248;DHT22;9758;48.640;8.148;2023-02-01T16:43:56;8.40;58.70